Terminal Aerodrome Forecast
Issued by NWS Wilmington, OH

Current Version | Previous Version | Graphics & Text | Print | Product List | Glossary On
Versions: 1 2 3 4 5 6 7 8 9 10 11 12 13 14 15 16 17 18 19 20 21 22
334
FTUS41 KILN 030251 AAA
TAFCMH
TAF AMD
KCMH 030251Z 0303/0324 03008KT P6SM SCT015 OVC040
     FM030900 01005KT 4SM BR SCT008 BKN012 OVC025
     FM031400 36006KT P6SM SCT012 OVC025
     FM031900 33008KT P6SM BKN040=

USA.gov is the U.S. government's official web portal to all federal, state and local government web resources and services.